Time;durP1;ratioP1;P1;durP2;ratioP2;P2;SDS_P1;SDS_P2;PMS_P1;PMS_P2;Temp;Humidity;BMP_temperature;BMP_pressure;BME280_temperature;BME280_humidity;BME280_pressure;Samples;Min_cycle;Max_cycle;Signal;HPM_P1;HPM_P2
2023/06/17 00:00:38;;;;;;;13.02;9.32;;;15.20;99.90;;;;;;5055404;28;20037;-66
2023/06/17 00:03:03;;;;;;;15.63;11.05;;;15.20;99.90;;;;;;5053311;28;20068;-66
2023/06/17 00:05:29;;;;;;;14.55;10.23;;;15.20;99.90;;;;;;5036030;28;20127;-66
2023/06/17 00:07:55;;;;;;;13.23;9.35;;;15.20;99.90;;;;;;5035901;28;20041;-66
2023/06/17 00:10:20;;;;;;;14.13;10.60;;;15.20;99.90;;;;;;5053139;28;20033;-66
2023/06/17 00:12:48;;;;;;;14.48;11.50;;;15.20;99.90;;;;;;5035929;28;20570;-66
2023/06/17 00:15:16;;;;;;;13.13;10.77;;;15.20;99.90;;;;;;5019628;28;20037;-67
2023/06/17 00:17:46;;;;;;;18.40;10.18;;;15.10;99.90;;;;;;5053427;28;20513;-67
2023/06/17 00:20:13;;;;;;;13.32;9.75;;;15.20;99.90;;;;;;5073775;28;20044;-66
2023/06/17 00:22:40;;;;;;;16.08;9.65;;;15.20;99.90;;;;;;5055787;28;20528;-66
2023/06/17 00:25:06;;;;;;;15.88;10.65;;;15.20;99.90;;;;;;5055842;28;20134;-66
2023/06/17 00:27:32;;;;;;;13.90;10.77;;;15.20;99.90;;;;;;5073663;28;20414;-66
2023/06/17 00:30:00;;;;;;;13.23;10.25;;;15.20;99.90;;;;;;5054859;28;20397;-66
2023/06/17 00:32:27;;;;;;;15.70;10.48;;;15.20;99.90;;;;;;5055561;28;20507;-67
2023/06/17 00:34:53;;;;;;;14.23;9.70;;;15.30;99.90;;;;;;5051455;28;20051;-67
2023/06/17 00:37:19;;;;;;;15.98;9.52;;;15.30;99.90;;;;;;5052667;28;20072;-67
2023/06/17 00:39:44;;;;;;;17.85;9.65;;;15.30;99.90;;;;;;5053370;28;20068;-67
2023/06/17 00:42:11;;;;;;;11.82;8.20;;;15.30;99.90;;;;;;5053628;28;20032;-67
2023/06/17 00:44:39;;;;;;;13.98;10.82;;;15.40;99.90;;;;;;5034704;28;20072;-67
2023/06/17 00:47:06;;;;;;;17.67;12.38;;;15.40;99.90;;;;;;5053374;28;20445;-67
2023/06/17 00:49:40;;;;;;;22.33;11.95;;;15.40;99.90;;;;;;5035090;28;20044;-67
2023/06/17 00:52:07;;;;;;;13.90;10.27;;;15.50;99.90;;;;;;5052800;28;20091;-67
2023/06/17 00:54:38;;;;;;;15.48;12.95;;;15.50;99.90;;;;;;5035489;28;20047;-66
2023/06/17 00:57:07;;;;;;;17.80;12.02;;;15.60;99.90;;;;;;5035348;28;20416;-67
2023/06/17 00:59:36;;;;;;;17.67;12.57;;;15.60;99.90;;;;;;5052695;28;20041;-67
2023/06/17 01:02:02;;;;;;;20.10;12.40;;;15.60;99.90;;;;;;5034873;28;20072;-67
2023/06/17 01:04:29;;;;;;;21.25;12.98;;;15.60;99.90;;;;;;5052701;28;20033;-67
2023/06/17 01:07:39;;;;;;;18.65;14.27;;;15.60;99.90;;;;;;5040466;28;20123;-67
2023/06/17 01:10:19;;;;;;;19.70;15.55;;;15.70;99.90;;;;;;5041483;28;20052;-66
2023/06/17 01:12:47;;;;;;;24.42;17.02;;;15.70;99.90;;;;;;5051908;28;20032;-67
2023/06/17 01:15:16;;;;;;;20.10;15.88;;;15.70;99.90;;;;;;5052718;28;20482;-66
2023/06/17 01:17:46;;;;;;;22.98;17.33;;;15.70;99.90;;;;;;5034960;28;20037;-67
2023/06/17 01:20:17;;;;;;;24.92;19.35;;;15.70;99.90;;;;;;5052584;28;20036;-67
2023/06/17 01:22:45;;;;;;;21.17;16.33;;;15.70;99.90;;;;;;5018151;28;20119;-66
2023/06/17 01:25:13;;;;;;;23.83;16.77;;;15.70;99.90;;;;;;5049398;28;20070;-66
2023/06/17 01:27:39;;;;;;;22.92;16.77;;;15.70;99.90;;;;;;5072045;28;20052;-66
2023/06/17 01:30:05;;;;;;;23.85;15.52;;;15.80;99.90;;;;;;5072781;28;20047;-67
2023/06/17 01:32:31;;;;;;;26.65;17.17;;;15.80;99.90;;;;;;5072055;28;20043;-66
2023/06/17 01:35:02;;;;;;;25.42;17.10;;;15.80;99.90;;;;;;5037386;28;20032;-66
2023/06/17 01:37:51;;;;;;;27.33;17.10;;;15.80;99.90;;;;;;5054564;28;20082;-66
2023/06/17 01:40:20;;;;;;;22.08;16.02;;;15.80;99.90;;;;;;5053909;28;20397;-66
2023/06/17 01:42:50;;;;;;;23.42;17.38;;;15.80;99.90;;;;;;5035691;28;20080;-66
2023/06/17 01:45:17;;;;;;;20.50;16.35;;;15.90;99.90;;;;;;5034477;28;20124;-66
2023/06/17 01:47:43;;;;;;;24.98;18.45;;;15.90;99.90;;;;;;5051415;28;20049;-66
2023/06/17 01:50:09;;;;;;;20.90;16.83;;;15.90;99.90;;;;;;5052221;28;20037;-66
2023/06/17 01:52:35;;;;;;;23.23;18.27;;;15.90;99.90;;;;;;5052258;28;20041;-67
2023/06/17 01:55:02;;;;;;;22.58;16.25;;;15.90;99.90;;;;;;5051345;28;20170;-66
2023/06/17 01:57:28;;;;;;;19.60;16.17;;;15.90;99.90;;;;;;5051987;28;20094;-66
2023/06/17 01:59:54;;;;;;;24.50;16.08;;;15.90;99.90;;;;;;5034027;28;20127;-66
2023/06/17 02:02:20;;;;;;;23.27;15.13;;;15.90;99.90;;;;;;5051051;28;20045;-66
2023/06/17 02:04:48;;;;;;;22.80;18.55;;;15.90;99.90;;;;;;5052086;28;20037;-66
2023/06/17 02:07:17;;;;;;;25.63;17.20;;;15.90;99.90;;;;;;5051825;28;20126;-66
2023/06/17 02:09:44;;;;;;;20.20;15.50;;;15.90;99.90;;;;;;5033547;28;20363;-66
2023/06/17 02:12:11;;;;;;;21.48;15.50;;;15.90;99.90;;;;;;5017913;28;20055;-66
2023/06/17 02:14:37;;;;;;;20.95;16.42;;;15.80;99.90;;;;;;5017529;28;20041;-66
2023/06/17 02:17:03;;;;;;;20.77;16.25;;;15.80;99.90;;;;;;5050920;28;20541;-66
2023/06/17 02:19:31;;;;;;;20.95;15.40;;;15.70;99.90;;;;;;5034063;28;20132;-66
2023/06/17 02:21:57;;;;;;;25.63;17.10;;;15.70;99.90;;;;;;5037218;28;20123;-66
2023/06/17 02:24:23;;;;;;;20.13;14.68;;;15.70;99.90;;;;;;5021574;28;20091;-66
2023/06/17 02:26:50;;;;;;;21.90;15.75;;;15.70;99.90;;;;;;5055889;28;20080;-66
2023/06/17 02:29:16;;;;;;;21.45;15.50;;;15.70;99.90;;;;;;5037544;28;20541;-66
2023/06/17 02:31:42;;;;;;;21.85;15.68;;;15.70;99.90;;;;;;5052118;28;20128;-66
2023/06/17 02:34:09;;;;;;;20.80;16.50;;;15.70;99.90;;;;;;5038117;28;20127;-66
2023/06/17 02:36:37;;;;;;;21.58;17.85;;;15.70;99.90;;;;;;5037031;28;20054;-66
2023/06/17 02:39:03;;;;;;;24.55;17.55;;;15.70;99.90;;;;;;5037931;28;20120;-66
2023/06/17 02:41:28;;;;;;;23.35;18.00;;;15.70;99.90;;;;;;5037676;28;20577;-66
2023/06/17 02:43:54;;;;;;;21.65;16.23;;;15.70;99.90;;;;;;5054814;28;20124;-66
2023/06/17 02:46:20;;;;;;;23.88;16.83;;;15.70;99.90;;;;;;5037546;28;20032;-66
2023/06/17 02:48:46;;;;;;;22.35;16.98;;;15.70;99.90;;;;;;5054873;28;20045;-66
2023/06/17 02:51:11;;;;;;;26.75;18.80;;;15.70;99.90;;;;;;5037014;28;20049;-66
2023/06/17 02:53:37;;;;;;;23.33;18.05;;;15.60;99.90;;;;;;5037538;28;20045;-66
2023/06/17 02:56:03;;;;;;;28.27;19.17;;;15.60;99.90;;;;;;5055340;28;20033;-66
2023/06/17 02:58:29;;;;;;;24.00;18.25;;;15.60;99.90;;;;;;5054482;28;20041;-66
2023/06/17 03:00:54;;;;;;;22.27;17.85;;;15.50;99.90;;;;;;5055130;28;20049;-66
2023/06/17 03:03:43;;;;;;;25.45;17.35;;;15.60;99.90;;;;;;5055147;28;20044;-66
2023/06/17 03:06:08;;;;;;;22.25;16.50;;;15.50;99.90;;;;;;5053800;28;20045;-66
2023/06/17 03:08:35;;;;;;;25.23;17.77;;;15.60;99.90;;;;;;5020727;28;20053;-66
2023/06/17 03:11:02;;;;;;;26.02;16.50;;;15.60;99.90;;;;;;5037226;28;20411;-66
2023/06/17 03:13:28;;;;;;;20.65;16.60;;;15.60;99.90;;;;;;5020006;28;20041;-66
2023/06/17 03:15:54;;;;;;;23.58;17.50;;;15.60;99.90;;;;;;5037098;28;20033;-66
2023/06/17 03:18:21;;;;;;;22.33;17.77;;;15.50;99.90;;;;;;5036198;28;20041;-66
2023/06/17 03:20:48;;;;;;;23.25;17.98;;;15.50;99.90;;;;;;5043878;28;20094;-66
2023/06/17 03:23:15;;;;;;;23.77;16.38;;;15.50;99.90;;;;;;5056446;28;20056;-66
2023/06/17 03:25:41;;;;;;;22.10;17.77;;;15.50;99.90;;;;;;5056073;28;20048;-66
2023/06/17 03:28:07;;;;;;;23.73;18.17;;;15.50;99.90;;;;;;5056972;28;20054;-66
2023/06/17 03:30:32;;;;;;;26.70;20.05;;;15.50;99.90;;;;;;5056650;28;20124;-66
2023/06/17 03:32:58;;;;;;;27.30;22.27;;;15.50;99.90;;;;;;5055268;28;20110;-66
2023/06/17 03:35:24;;;;;;;30.98;24.50;;;15.50;99.90;;;;;;5056518;28;20036;-67
2023/06/17 03:37:50;;;;;;;34.88;23.25;;;15.50;99.90;;;;;;5029427;28;20033;-66
2023/06/17 03:40:16;;;;;;;32.60;24.63;;;15.50;99.90;;;;;;5053704;28;20095;-66
2023/06/17 03:42:41;;;;;;;31.35;24.27;;;15.60;99.90;;;;;;5054407;28;20072;-66
2023/06/17 03:45:08;;;;;;;28.33;23.40;;;15.50;99.90;;;;;;5054926;28;20110;-66
2023/06/17 03:47:33;;;;;;;29.08;24.42;;;15.50;99.90;;;;;;5053655;28;20095;-66
2023/06/17 03:49:59;;;;;;;28.48;23.02;;;15.50;99.90;;;;;;5054288;28;20127;-66
2023/06/17 03:52:25;;;;;;;29.35;23.05;;;15.60;99.90;;;;;;5054203;28;20044;-66
2023/06/17 03:54:52;;;;;;;26.35;19.92;;;15.60;99.90;;;;;;5053526;28;20041;-66
2023/06/17 03:57:18;;;;;;;27.17;20.83;;;15.60;99.90;;;;;;5054078;28;20505;-66
2023/06/17 03:59:43;;;;;;;24.50;19.25;;;15.50;99.90;;;;;;5054385;28;20044;-66
2023/06/17 04:02:10;;;;;;;25.38;19.45;;;15.50;99.90;;;;;;5053489;28;20184;-66
2023/06/17 04:04:35;;;;;;;21.77;18.33;;;15.50;99.90;;;;;;5036158;28;20044;-66
2023/06/17 04:07:02;;;;;;;27.17;17.75;;;15.50;99.90;;;;;;5036313;28;20120;-66
2023/06/17 04:09:27;;;;;;;21.45;16.95;;;15.50;99.90;;;;;;5053158;28;20033;-66
2023/06/17 04:11:53;;;;;;;23.92;16.88;;;15.50;99.90;;;;;;5046940;28;20037;-66
2023/06/17 04:14:19;;;;;;;23.20;16.90;;;15.50;99.90;;;;;;5036248;28;20533;-66
2023/06/17 04:16:44;;;;;;;23.27;18.98;;;15.50;99.90;;;;;;5035292;28;20497;-66
2023/06/17 04:19:13;;;;;;;22.75;18.10;;;15.60;99.90;;;;;;5053998;28;20464;-66
2023/06/17 04:21:39;;;;;;;22.73;17.83;;;15.50;99.90;;;;;;5049816;28;20374;-66
2023/06/17 04:24:05;;;;;;;25.30;18.42;;;15.50;99.90;;;;;;5053776;28;20048;-66
2023/06/17 04:26:32;;;;;;;22.67;18.60;;;15.50;99.90;;;;;;5053598;28;20441;-66
2023/06/17 04:29:00;;;;;;;23.45;17.42;;;15.40;99.90;;;;;;5052966;28;20079;-66
2023/06/17 04:31:27;;;;;;;22.33;15.70;;;15.50;99.90;;;;;;5035806;28;20088;-66
2023/06/17 04:33:53;;;;;;;22.23;17.90;;;15.50;99.90;;;;;;5019299;28;20459;-66
2023/06/17 04:36:20;;;;;;;22.80;17.42;;;15.60;99.90;;;;;;5052543;28;20060;-66
2023/06/17 04:38:49;;;;;;;20.50;16.35;;;15.60;99.90;;;;;;5053468;28;20036;-66
2023/06/17 04:41:16;;;;;;;22.42;17.75;;;15.60;99.90;;;;;;5035601;28;20053;-66
2023/06/17 04:43:48;;;;;;;23.08;15.57;;;15.60;99.90;;;;;;5052495;28;20044;-66
2023/06/17 04:46:16;;;;;;;23.30;16.95;;;15.60;99.90;;;;;;5035606;28;20053;-66
2023/06/17 04:48:43;;;;;;;24.65;16.60;;;15.60;99.90;;;;;;5053151;28;20045;-66
2023/06/17 04:51:10;;;;;;;20.73;15.43;;;15.60;99.90;;;;;;5052498;28;20086;-66
2023/06/17 04:53:38;;;;;;;21.17;15.95;;;15.60;99.90;;;;;;5035643;28;20053;-66
2023/06/17 04:56:06;;;;;;;24.83;15.25;;;15.60;99.90;;;;;;5035315;28;20120;-66
2023/06/17 04:58:32;;;;;;;19.92;14.93;;;15.50;99.90;;;;;;5034423;28;20049;-66
2023/06/17 05:00:58;;;;;;;19.13;14.95;;;15.50;99.90;;;;;;5053076;28;20095;-66
2023/06/17 05:03:24;;;;;;;23.10;16.75;;;15.50;99.90;;;;;;5034874;28;20045;-66
2023/06/17 05:05:50;;;;;;;19.85;15.60;;;15.60;99.90;;;;;;5034488;28;20132;-66
2023/06/17 05:08:15;;;;;;;19.75;14.27;;;15.60;99.90;;;;;;5035235;28;20047;-66
2023/06/17 05:10:41;;;;;;;19.45;14.82;;;15.60;99.90;;;;;;5052365;28;20116;-66
2023/06/17 05:13:07;;;;;;;32.42;17.48;;;15.70;99.90;;;;;;5053152;28;20561;-66
2023/06/17 05:15:32;;;;;;;21.27;14.70;;;15.70;99.90;;;;;;5035020;28;20040;-66
2023/06/17 05:17:58;;;;;;;16.67;13.38;;;15.70;99.90;;;;;;5051866;28;20470;-66
2023/06/17 05:20:24;;;;;;;22.17;14.93;;;15.70;99.90;;;;;;5052488;28;20457;-66
2023/06/17 05:22:49;;;;;;;20.08;14.13;;;15.80;99.90;;;;;;5052703;28;20110;-66
2023/06/17 05:25:15;;;;;;;18.20;13.48;;;15.80;99.90;;;;;;5051609;28;20085;-66
2023/06/17 05:27:41;;;;;;;20.83;14.25;;;15.80;99.90;;;;;;5052570;28;20098;-66
2023/06/17 05:30:07;;;;;;;22.80;14.98;;;15.80;99.90;;;;;;5034787;28;20045;-66
2023/06/17 05:32:32;;;;;;;30.08;15.88;;;15.90;99.90;;;;;;5051605;28;20401;-66
2023/06/17 05:34:58;;;;;;;49.10;20.30;;;15.90;99.90;;;;;;5034777;28;20037;-66
2023/06/17 05:37:24;;;;;;;60.80;23.77;;;15.90;99.90;;;;;;5066398;28;20469;-66
2023/06/17 05:39:49;;;;;;;34.90;17.88;;;16.00;99.90;;;;;;5071288;28;20086;-66
2023/06/17 05:42:15;;;;;;;27.17;17.73;;;16.00;99.90;;;;;;5072314;28;20064;-66
2023/06/17 05:44:41;;;;;;;24.67;15.73;;;16.00;99.90;;;;;;5072295;28;20392;-66
2023/06/17 05:47:06;;;;;;;22.13;16.83;;;16.10;99.90;;;;;;5071765;28;20040;-66
2023/06/17 05:49:32;;;;;;;23.27;16.17;;;16.10;99.90;;;;;;5072096;28;20547;-66
2023/06/17 05:51:57;;;;;;;18.15;15.27;;;16.20;99.90;;;;;;5061859;28;20079;-66
2023/06/17 05:54:23;;;;;;;18.75;14.98;;;16.20;99.90;;;;;;5061861;28;20083;-66
2023/06/17 05:56:50;;;;;;;18.00;15.90;;;16.10;99.90;;;;;;5034364;28;20128;-66
2023/06/17 05:59:16;;;;;;;18.85;14.30;;;16.20;99.90;;;;;;5034158;28;20048;-66
2023/06/17 06:01:41;;;;;;;18.92;15.13;;;16.20;99.90;;;;;;5017316;28;20047;-66
2023/06/17 06:04:07;;;;;;;19.20;13.90;;;16.30;99.90;;;;;;5034240;28;20048;-66
2023/06/17 06:06:33;;;;;;;20.67;14.40;;;16.30;99.90;;;;;;5052135;28;20044;-66
2023/06/17 06:08:58;;;;;;;20.50;14.82;;;16.40;99.90;;;;;;5033352;28;20401;-66
2023/06/17 06:11:24;;;;;;;22.10;15.25;;;16.40;99.90;;;;;;5034338;28;20053;-66
2023/06/17 06:13:50;;;;;;;19.15;15.20;;;16.40;99.90;;;;;;5034009;28;20115;-66
2023/06/17 06:16:15;;;;;;;20.17;14.82;;;16.40;99.90;;;;;;5033108;28;20083;-66
2023/06/17 06:18:41;;;;;;;17.45;13.43;;;16.50;99.90;;;;;;5051493;28;20032;-66
2023/06/17 06:21:06;;;;;;;21.08;14.40;;;16.50;99.90;;;;;;5033796;28;20367;-66
2023/06/17 06:23:33;;;;;;;19.25;14.63;;;16.60;99.90;;;;;;5051695;28;20519;-66
2023/06/17 06:25:59;;;;;;;20.77;14.20;;;16.60;99.90;;;;;;5034321;28;20806;-66
2023/06/17 06:28:25;;;;;;;21.83;15.90;;;16.70;99.90;;;;;;5050849;28;20156;-66
2023/06/17 06:30:51;;;;;;;18.50;13.32;;;16.70;99.90;;;;;;5017496;28;20044;-66
2023/06/17 06:33:16;;;;;;;16.08;13.23;;;16.70;99.90;;;;;;5051642;28;20037;-66
2023/06/17 06:35:43;;;;;;;16.15;12.85;;;16.70;99.90;;;;;;5050977;28;20474;-66
2023/06/17 06:38:08;;;;;;;19.27;14.13;;;16.80;99.90;;;;;;5034167;28;20041;-66
2023/06/17 06:40:34;;;;;;;20.45;13.18;;;16.80;99.90;;;;;;5051795;28;20052;-66
2023/06/17 06:43:00;;;;;;;22.55;15.27;;;16.90;99.90;;;;;;5050786;28;20124;-66
2023/06/17 06:45:25;;;;;;;17.13;12.30;;;17.00;99.90;;;;;;5051546;28;20041;-67
2023/06/17 06:47:51;;;;;;;15.32;12.63;;;17.00;99.90;;;;;;5051169;28;20048;-66
2023/06/17 06:50:17;;;;;;;23.23;14.23;;;17.10;99.90;;;;;;5050530;28;20047;-66
2023/06/17 06:52:42;;;;;;;19.25;14.77;;;17.20;99.90;;;;;;5033710;28;20047;-66
2023/06/17 06:55:08;;;;;;;17.85;13.90;;;17.20;99.90;;;;;;5051949;28;20456;-66
2023/06/17 06:57:34;;;;;;;18.45;13.40;;;17.30;99.90;;;;;;5032491;28;20408;-66
2023/06/17 07:00:00;;;;;;;15.82;12.48;;;17.30;99.90;;;;;;5050149;28;20051;-66
2023/06/17 07:02:25;;;;;;;19.98;13.52;;;17.40;99.90;;;;;;5033505;28;20041;-67
2023/06/17 07:04:51;;;;;;;17.40;13.13;;;17.50;99.90;;;;;;5033092;28;20045;-66
2023/06/17 07:07:17;;;;;;;20.15;13.93;;;17.50;99.90;;;;;;5054375;28;20111;-67
2023/06/17 07:09:43;;;;;;;18.35;13.15;;;17.50;99.90;;;;;;5054740;28;20047;-66
2023/06/17 07:12:11;;;;;;;20.85;13.18;;;17.60;99.90;;;;;;5033519;28;20395;-67
2023/06/17 07:14:37;;;;;;;15.63;12.52;;;17.50;99.90;;;;;;5019088;28;20045;-68
2023/06/17 07:17:02;;;;;;;18.98;13.52;;;17.50;99.90;;;;;;5052095;28;20033;-67
2023/06/17 07:19:28;;;;;;;16.17;13.50;;;17.60;99.90;;;;;;5033536;28;20033;-67
2023/06/17 07:21:54;;;;;;;19.48;13.85;;;17.70;99.90;;;;;;5051824;28;20124;-63
2023/06/17 07:24:19;;;;;;;18.45;12.45;;;17.80;99.90;;;;;;5033485;28;20057;-64
2023/06/17 07:26:46;;;;;;;15.07;11.77;;;17.80;99.90;;;;;;5051993;28;20052;-64
2023/06/17 07:29:11;;;;;;;18.77;11.55;;;17.80;99.90;;;;;;5036193;28;20126;-64
2023/06/17 07:31:37;;;;;;;15.82;12.32;;;17.90;99.90;;;;;;5053960;28;20087;-64
2023/06/17 07:34:03;;;;;;;16.50;12.13;;;18.10;99.90;;;;;;5069028;28;20055;-64
2023/06/17 07:36:29;;;;;;;14.68;11.05;;;18.20;99.90;;;;;;5071521;28;20400;-65
2023/06/17 07:38:56;;;;;;;18.33;12.30;;;18.30;99.90;;;;;;5070512;28;20134;-64
2023/06/17 07:41:23;;;;;;;18.00;11.90;;;18.50;99.90;;;;;;5053958;28;20067;-63
2023/06/17 07:43:49;;;;;;;16.42;12.10;;;18.70;99.90;;;;;;5053890;28;20041;-64
2023/06/17 07:46:15;;;;;;;17.10;12.75;;;19.00;99.90;;;;;;5051204;28;20048;-64
2023/06/17 07:48:41;;;;;;;18.20;12.00;;;19.10;99.90;;;;;;5071525;28;20051;-64
2023/06/17 07:51:07;;;;;;;18.85;12.85;;;19.20;99.90;;;;;;5071471;28;20413;-64
2023/06/17 07:53:32;;;;;;;15.23;10.93;;;19.30;99.90;;;;;;5052873;28;20040;-60
2023/06/17 07:55:58;;;;;;;17.02;12.45;;;19.30;99.90;;;;;;5071575;28;20048;-61
2023/06/17 07:58:24;;;;;;;16.55;11.60;;;19.40;99.90;;;;;;5055297;28;20052;-61
2023/06/17 08:00:49;;;;;;;16.35;13.23;;;19.50;99.90;;;;;;5078624;28;20425;-61
2023/06/17 08:03:16;;;;;;;15.32;12.32;;;19.40;99.90;;;;;;5053383;28;20524;-60
2023/06/17 08:05:41;;;;;;;16.20;12.00;;;19.20;99.90;;;;;;5070633;28;20044;-61
2023/06/17 08:08:07;;;;;;;17.45;12.18;;;19.10;99.90;;;;;;5068908;28;20047;-60
2023/06/17 08:10:33;;;;;;;17.88;12.68;;;19.10;99.90;;;;;;5052381;28;20194;-60
2023/06/17 08:12:58;;;;;;;16.75;11.57;;;19.10;99.90;;;;;;5048980;28;20044;-60
2023/06/17 08:15:24;;;;;;;16.42;11.38;;;19.30;99.90;;;;;;5040439;28;20508;-60
2023/06/17 08:17:50;;;;;;;16.27;11.57;;;19.40;99.90;;;;;;5053077;28;20214;-60
2023/06/17 08:20:16;;;;;;;19.17;12.13;;;19.40;99.90;;;;;;5069980;28;20503;-60
2023/06/17 08:22:42;;;;;;;17.52;12.10;;;19.60;99.90;;;;;;5041658;28;20116;-60
2023/06/17 08:25:08;;;;;;;19.88;11.48;;;19.80;99.90;;;;;;5059620;28;20049;-60
2023/06/17 08:27:34;;;;;;;14.38;10.35;;;19.90;99.90;;;;;;5052833;28;20130;-60
2023/06/17 08:30:00;;;;;;;16.60;10.38;;;19.90;99.90;;;;;;5051913;28;20040;-60
2023/06/17 08:32:25;;;;;;;25.40;12.23;;;20.10;99.90;;;;;;5070201;28;20435;-60
2023/06/17 08:34:51;;;;;;;19.55;11.55;;;20.20;99.90;;;;;;5062099;28;20041;-60
2023/06/17 08:37:17;;;;;;;14.55;10.43;;;20.20;99.90;;;;;;5072273;28;20047;-60
2023/06/17 08:39:42;;;;;;;15.05;10.10;;;20.20;99.90;;;;;;5043887;28;20179;-60
2023/06/17 08:42:09;;;;;;;20.20;13.38;;;20.20;99.90;;;;;;5018729;28;20091;-62
2023/06/17 08:44:40;;;;;;;15.25;10.60;;;20.30;99.90;;;;;;5054090;28;20547;-61
2023/06/17 08:47:06;;;;;;;14.73;11.15;;;20.40;99.90;;;;;;5043315;28;20083;-61
2023/06/17 08:49:33;;;;;;;22.67;11.65;;;20.40;99.90;;;;;;5041740;28;20131;-61
2023/06/17 08:52:00;;;;;;;15.23;10.35;;;20.40;99.90;;;;;;5053103;28;20041;-62
2023/06/17 08:54:30;;;;;;;17.88;11.52;;;20.50;99.90;;;;;;5053356;28;20037;-61
2023/06/17 08:56:56;;;;;;;17.52;11.32;;;20.60;99.90;;;;;;5052488;28;20045;-62
2023/06/17 08:59:22;;;;;;;13.02;10.05;;;20.70;99.90;;;;;;5035488;28;20045;-62
2023/06/17 09:01:51;;;;;;;15.38;11.20;;;20.80;99.90;;;;;;5035660;28;20037;-61
2023/06/17 09:04:19;;;;;;;14.27;11.05;;;20.70;99.90;;;;;;5033698;28;20044;-61
2023/06/17 09:06:47;;;;;;;18.33;11.77;;;20.80;99.90;;;;;;5054985;28;20048;-62
2023/06/17 09:09:12;;;;;;;12.20;10.00;;;20.80;99.90;;;;;;5050788;28;20044;-61
2023/06/17 09:11:38;;;;;;;14.15;11.77;;;20.80;99.90;;;;;;5049572;28;20044;-60
2023/06/17 09:14:04;;;;;;;15.90;10.50;;;21.00;99.90;;;;;;5072688;28;20044;-62
2023/06/17 09:16:35;;;;;;;16.33;11.27;;;21.10;99.90;;;;;;5073062;28;20025;-63
2023/06/17 09:19:08;;;;;;;16.20;11.00;;;21.10;99.90;;;;;;5069934;28;20075;-63
2023/06/17 09:21:35;;;;;;;16.25;11.55;;;21.20;99.90;;;;;;5055205;28;20037;-64
2023/06/17 09:24:05;;;;;;;15.95;11.88;;;21.20;99.90;;;;;;5039344;28;20059;-64
2023/06/17 09:26:33;;;;;;;15.60;10.65;;;21.30;99.90;;;;;;5045273;28;20045;-64
2023/06/17 09:29:06;;;;;;;17.40;12.07;;;21.40;99.90;;;;;;5041887;28;20045;-64
2023/06/17 09:31:35;;;;;;;14.77;10.45;;;21.50;99.90;;;;;;5049406;28;20394;-64
2023/06/17 09:34:04;;;;;;;17.05;11.80;;;21.60;99.90;;;;;;5052478;28;20120;-64
2023/06/17 09:36:30;;;;;;;14.57;11.15;;;21.60;99.90;;;;;;5051977;28;20036;-65
2023/06/17 09:38:55;;;;;;;16.33;11.07;;;21.50;99.90;;;;;;5049651;28;20055;-64
2023/06/17 09:41:23;;;;;;;16.20;10.88;;;21.60;99.90;;;;;;5041807;28;20036;-62
2023/06/17 09:43:53;;;;;;;14.68;10.98;;;21.80;99.90;;;;;;5031943;28;20099;-65
2023/06/17 09:46:29;;;;;;;17.23;10.77;;;21.80;99.90;;;;;;5049833;28;20520;-65
2023/06/17 09:48:58;;;;;;;16.60;10.95;;;21.80;99.90;;;;;;5052601;28;20056;-65
2023/06/17 09:51:25;;;;;;;15.70;10.00;;;21.90;99.90;;;;;;5051567;28;20099;-64
2023/06/17 09:53:52;;;;;;;12.93;10.10;;;22.00;99.90;;;;;;5043472;28;20055;-64
2023/06/17 09:56:19;;;;;;;15.38;10.70;;;22.00;99.90;;;;;;5031799;28;20022;-64
2023/06/17 09:58:45;;;;;;;14.02;9.48;;;21.90;99.90;;;;;;5037438;28;20045;-61
2023/06/17 10:01:12;;;;;;;17.20;9.50;;;22.00;99.90;;;;;;5033725;28;20041;-61
2023/06/17 10:03:39;;;;;;;14.18;10.63;;;22.00;99.90;;;;;;5050911;28;20485;-61
2023/06/17 10:06:13;;;;;;;13.27;10.40;;;22.10;99.90;;;;;;5049888;28;20131;-60
2023/06/17 10:08:48;;;;;;;13.82;10.05;;;22.20;99.90;;;;;;5035650;28;20482;-60
2023/06/17 10:11:18;;;;;;;18.00;12.10;;;22.40;99.90;;;;;;5042378;28;20120;-61
2023/06/17 10:13:49;;;;;;;15.05;9.88;;;22.40;99.90;;;;;;5013323;28;20103;-61
2023/06/17 10:16:18;;;;;;;13.50;9.88;;;22.50;99.90;;;;;;5031035;28;20041;-61
2023/06/17 10:18:48;;;;;;;17.20;11.80;;;22.70;99.90;;;;;;5032009;28;20479;-60
2023/06/17 10:21:14;;;;;;;16.40;11.05;;;22.60;99.90;;;;;;5031539;28;20038;-59
2023/06/17 10:23:42;;;;;;;13.95;10.45;;;22.60;99.90;;;;;;5030867;28;20053;-59
2023/06/17 10:26:10;;;;;;;15.07;11.25;;;22.70;99.90;;;;;;5030688;28;20053;-59
2023/06/17 10:29:07;;;;;;;18.05;11.52;;;22.80;99.90;;;;;;5029939;28;20048;-59
2023/06/17 10:31:39;;;;;;;12.23;10.18;;;22.90;99.90;;;;;;5028992;28;21049;-59
2023/06/17 10:34:05;;;;;;;15.45;11.30;;;23.00;99.90;;;;;;5031896;28;20049;-59
2023/06/17 10:36:35;;;;;;;16.27;10.80;;;23.00;99.90;;;;;;5030137;28;20049;-59
2023/06/17 10:39:10;;;;;;;15.25;11.10;;;23.10;99.90;;;;;;5030897;28;20045;-59
2023/06/17 10:41:38;;;;;;;15.50;11.55;;;23.20;99.90;;;;;;5032494;28;20265;-59
2023/06/17 10:44:35;;;;;;;19.67;12.70;;;23.30;99.90;;;;;;5047433;28;20045;-59
2023/06/17 10:47:02;;;;;;;14.70;10.80;;;23.30;99.90;;;;;;5052389;28;20056;-60
2023/06/17 10:49:42;;;;;;;19.63;10.82;;;23.30;99.90;;;;;;5053432;28;20049;-61
2023/06/17 10:52:15;;;;;;;14.27;11.25;;;23.40;99.90;;;;;;5036385;28;20116;-60
2023/06/17 10:54:54;;;;;;;14.82;10.85;;;23.40;99.90;;;;;;5032680;28;20045;-60
2023/06/17 10:57:36;;;;;;;14.25;11.88;;;23.50;99.90;;;;;;5034311;28;20494;-60
2023/06/17 11:00:08;;;;;;;15.20;10.88;;;23.60;99.90;;;;;;5046064;28;20045;-63
2023/06/17 11:02:38;;;;;;;17.08;11.70;;;23.70;99.90;;;;;;5052692;28;20037;-65
2023/06/17 11:05:08;;;;;;;17.40;12.32;;;23.60;99.90;;;;;;5054054;28;20079;-61
2023/06/17 11:07:34;;;;;;;14.52;10.75;;;23.60;99.90;;;;;;5053965;28;20041;-61
2023/06/17 11:10:00;;;;;;;15.23;11.57;;;23.70;99.90;;;;;;5053293;28;20044;-62
2023/06/17 11:12:25;;;;;;;18.00;13.18;;;23.60;99.90;;;;;;5049364;28;20041;-61
2023/06/17 11:14:51;;;;;;;14.10;11.35;;;23.70;99.90;;;;;;5034370;28;20359;-62
2023/06/17 11:17:17;;;;;;;15.85;10.65;;;23.80;99.90;;;;;;5033720;28;20479;-62
2023/06/17 11:19:43;;;;;;;17.23;11.73;;;23.90;99.90;;;;;;5017195;28;20072;-62
2023/06/17 11:22:09;;;;;;;19.33;12.73;;;24.00;99.90;;;;;;5034045;28;20042;-62
2023/06/17 11:24:35;;;;;;;16.02;9.82;;;24.00;99.90;;;;;;5041668;28;20179;-62
2023/06/17 11:27:01;;;;;;;17.05;10.07;;;24.10;99.90;;;;;;5033451;28;20050;-62
2023/06/17 11:29:29;;;;;;;14.55;10.57;;;24.30;99.90;;;;;;5035119;28;20048;-62
2023/06/17 11:31:58;;;;;;;17.00;11.82;;;24.20;99.90;;;;;;5032700;28;20517;-62
2023/06/17 11:34:25;;;;;;;14.70;10.38;;;24.20;99.90;;;;;;5034938;28;20122;-62
2023/06/17 11:36:52;;;;;;;21.67;11.00;;;24.30;99.90;;;;;;5043071;28;20041;-61
2023/06/17 11:39:26;;;;;;;15.63;9.80;;;24.30;99.90;;;;;;5048757;28;20041;-61
2023/06/17 11:41:52;;;;;;;14.27;9.70;;;24.40;99.90;;;;;;5042638;28;20482;-61
2023/06/17 11:44:21;;;;;;;13.18;9.45;;;24.40;99.90;;;;;;5049761;28;20032;-61
2023/06/17 11:46:55;;;;;;;14.63;9.43;;;24.40;99.90;;;;;;5047642;28;20441;-62
2023/06/17 11:49:28;;;;;;;18.85;10.10;;;24.40;99.90;;;;;;5041170;28;20037;-60
2023/06/17 11:51:53;;;;;;;14.75;8.25;;;24.40;99.90;;;;;;5047928;28;20084;-61
2023/06/17 11:54:25;;;;;;;17.17;9.65;;;24.50;99.90;;;;;;5033456;28;20445;-60
2023/06/17 11:56:50;;;;;;;16.50;10.25;;;24.60;99.60;;;;;;5043555;28;20116;-63
2023/06/17 11:59:19;;;;;;;16.08;9.50;;;24.70;99.90;;;;;;5053319;28;20136;-64
2023/06/17 12:01:46;;;;;;;14.75;10.13;;;24.70;99.90;;;;;;5049749;28;20103;-63
2023/06/17 12:04:13;;;;;;;14.05;9.13;;;24.80;99.90;;;;;;5033279;28;20037;-64
2023/06/17 12:06:40;;;;;;;13.82;10.93;;;24.70;99.40;;;;;;5032708;28;20486;-63
2023/06/17 12:09:08;;;;;;;16.02;9.38;;;24.60;98.90;;;;;;5033421;28;20115;-63
2023/06/17 12:11:37;;;;;;;14.48;8.98;;;24.50;99.40;;;;;;5034422;28;20041;-64
2023/06/17 12:14:10;;;;;;;17.70;11.13;;;24.50;99.90;;;;;;5049303;28;20553;-63
2023/06/17 12:16:41;;;;;;;12.83;10.10;;;24.70;99.90;;;;;;5053005;28;20044;-64
2023/06/17 12:19:15;;;;;;;15.00;8.90;;;24.70;99.50;;;;;;5050133;28;20045;-64
2023/06/17 12:21:41;;;;;;;14.75;9.73;;;24.80;99.60;;;;;;5045404;28;20037;-62
2023/06/17 12:24:07;;;;;;;16.13;9.25;;;24.60;99.80;;;;;;5043615;28;20412;-62
2023/06/17 12:26:33;;;;;;;15.18;9.45;;;24.50;99.60;;;;;;5048070;28;20479;-62
2023/06/17 12:28:59;;;;;;;12.75;9.48;;;24.40;99.90;;;;;;5031842;28;20073;-62